sensor_id;sensor_type;location;lat;lon;timestamp;P1;durP1;ratioP1;P2;durP2;ratioP2
20462;SDS011;10390;53.566;9.980;2022-10-22T00:02:07;15.43;;;13.88;;
20462;SDS011;10390;53.566;9.980;2022-10-22T00:04:32;15.85;;;14.30;;
20462;SDS011;10390;53.566;9.980;2022-10-22T00:06:58;16.17;;;14.57;;
20462;SDS011;10390;53.566;9.980;2022-10-22T00:09:24;15.65;;;14.07;;
20462;SDS011;10390;53.566;9.980;2022-10-22T00:11:50;18.83;;;16.90;;
20462;SDS011;10390;53.566;9.980;2022-10-22T00:14:15;18.27;;;16.38;;
20462;SDS011;10390;53.566;9.980;2022-10-22T00:16:41;17.55;;;15.85;;
20462;SDS011;10390;53.566;9.980;2022-10-22T00:19:07;18.38;;;16.48;;
20462;SDS011;10390;53.566;9.980;2022-10-22T00:21:33;16.48;;;14.80;;
20462;SDS011;10390;53.566;9.980;2022-10-22T00:23:59;16.05;;;14.50;;
20462;SDS011;10390;53.566;9.980;2022-10-22T00:26:25;16.70;;;15.10;;
20462;SDS011;10390;53.566;9.980;2022-10-22T00:28:51;16.17;;;14.63;;
20462;SDS011;10390;53.566;9.980;2022-10-22T00:31:17;15.15;;;13.68;;
20462;SDS011;10390;53.566;9.980;2022-10-22T00:33:44;16.90;;;15.20;;
20462;SDS011;10390;53.566;9.980;2022-10-22T00:36:11;14.82;;;13.43;;
20462;SDS011;10390;53.566;9.980;2022-10-22T00:38:37;14.18;;;12.75;;
20462;SDS011;10390;53.566;9.980;2022-10-22T00:41:03;15.23;;;13.73;;
20462;SDS011;10390;53.566;9.980;2022-10-22T00:43:29;14.80;;;13.40;;
20462;SDS011;10390;53.566;9.980;2022-10-22T00:45:54;14.77;;;13.38;;
20462;SDS011;10390;53.566;9.980;2022-10-22T00:48:21;14.38;;;13.00;;
20462;SDS011;10390;53.566;9.980;2022-10-22T00:50:53;14.02;;;12.73;;
20462;SDS011;10390;53.566;9.980;2022-10-22T00:53:32;14.02;;;12.73;;
20462;SDS011;10390;53.566;9.980;2022-10-22T00:56:02;13.68;;;12.38;;
20462;SDS011;10390;53.566;9.980;2022-10-22T00:58:28;13.32;;;12.13;;
20462;SDS011;10390;53.566;9.980;2022-10-22T01:00:57;13.35;;;12.15;;
20462;SDS011;10390;53.566;9.980;2022-10-22T01:03:23;13.07;;;11.88;;
20462;SDS011;10390;53.566;9.980;2022-10-22T01:05:56;12.02;;;10.93;;
20462;SDS011;10390;53.566;9.980;2022-10-22T01:08:26;12.02;;;10.93;;
20462;SDS011;10390;53.566;9.980;2022-10-22T01:13:48;11.88;;;10.88;;
20462;SDS011;10390;53.566;9.980;2022-10-22T01:16:37;12.48;;;11.38;;
20462;SDS011;10390;53.566;9.980;2022-10-22T01:25:24;12.85;;;11.57;;
20462;SDS011;10390;53.566;9.980;2022-10-22T01:30:58;12.25;;;11.15;;
20462;SDS011;10390;53.566;9.980;2022-10-22T01:33:27;11.90;;;10.80;;
20462;SDS011;10390;53.566;9.980;2022-10-22T01:35:55;12.00;;;10.90;;
20462;SDS011;10390;53.566;9.980;2022-10-22T01:38:24;12.93;;;11.82;;
20462;SDS011;10390;53.566;9.980;2022-10-22T01:40:50;11.65;;;10.65;;
20462;SDS011;10390;53.566;9.980;2022-10-22T01:43:16;12.10;;;10.90;;
20462;SDS011;10390;53.566;9.980;2022-10-22T01:45:43;11.68;;;10.60;;
20462;SDS011;10390;53.566;9.980;2022-10-22T01:56:38;13.43;;;12.13;;
20462;SDS011;10390;53.566;9.980;2022-10-22T02:01:53;13.20;;;12.00;;
20462;SDS011;10390;53.566;9.980;2022-10-22T02:05:07;13.02;;;11.82;;
20462;SDS011;10390;53.566;9.980;2022-10-22T02:07:43;11.23;;;10.23;;
20462;SDS011;10390;53.566;9.980;2022-10-22T02:10:14;12.45;;;11.15;;
20462;SDS011;10390;53.566;9.980;2022-10-22T02:12:42;11.23;;;10.23;;
20462;SDS011;10390;53.566;9.980;2022-10-22T02:15:10;11.75;;;10.65;;
20462;SDS011;10390;53.566;9.980;2022-10-22T02:17:38;11.95;;;10.88;;
20462;SDS011;10390;53.566;9.980;2022-10-22T02:20:12;11.18;;;10.18;;
20462;SDS011;10390;53.566;9.980;2022-10-22T02:22:49;11.35;;;10.25;;
20462;SDS011;10390;53.566;9.980;2022-10-22T02:25:16;11.30;;;10.30;;
20462;SDS011;10390;53.566;9.980;2022-10-22T02:27:43;12.35;;;11.18;;
20462;SDS011;10390;53.566;9.980;2022-10-22T02:30:18;11.48;;;10.48;;
20462;SDS011;10390;53.566;9.980;2022-10-22T02:32:50;11.93;;;10.82;;
20462;SDS011;10390;53.566;9.980;2022-10-22T02:35:28;11.70;;;10.60;;
20462;SDS011;10390;53.566;9.980;2022-10-22T02:37:55;12.27;;;11.07;;
20462;SDS011;10390;53.566;9.980;2022-10-22T02:40:22;12.20;;;11.10;;
20462;SDS011;10390;53.566;9.980;2022-10-22T02:42:49;10.95;;;10.05;;
20462;SDS011;10390;53.566;9.980;2022-10-22T02:45:15;12.40;;;11.25;;
20462;SDS011;10390;53.566;9.980;2022-10-22T02:47:42;13.90;;;12.60;;
20462;SDS011;10390;53.566;9.980;2022-10-22T02:50:08;14.48;;;13.13;;
20462;SDS011;10390;53.566;9.980;2022-10-22T02:52:34;16.40;;;14.70;;
20462;SDS011;10390;53.566;9.980;2022-10-22T02:54:59;17.17;;;15.48;;
20462;SDS011;10390;53.566;9.980;2022-10-22T02:57:25;16.45;;;14.85;;
20462;SDS011;10390;53.566;9.980;2022-10-22T02:59:51;16.25;;;14.65;;
20462;SDS011;10390;53.566;9.980;2022-10-22T03:02:16;16.58;;;14.88;;
20462;SDS011;10390;53.566;9.980;2022-10-22T03:04:42;16.85;;;15.25;;
20462;SDS011;10390;53.566;9.980;2022-10-22T03:07:08;17.67;;;16.00;;
20462;SDS011;10390;53.566;9.980;2022-10-22T03:09:33;17.45;;;15.65;;
20462;SDS011;10390;53.566;9.980;2022-10-22T03:11:59;16.33;;;14.73;;
20462;SDS011;10390;53.566;9.980;2022-10-22T03:14:25;15.32;;;13.73;;
20462;SDS011;10390;53.566;9.980;2022-10-22T03:16:50;16.85;;;15.15;;
20462;SDS011;10390;53.566;9.980;2022-10-22T03:19:16;18.45;;;16.55;;
20462;SDS011;10390;53.566;9.980;2022-10-22T03:21:49;18.75;;;16.75;;
20462;SDS011;10390;53.566;9.980;2022-10-22T03:24:39;17.42;;;15.73;;
20462;SDS011;10390;53.566;9.980;2022-10-22T03:27:07;17.50;;;15.80;;
20462;SDS011;10390;53.566;9.980;2022-10-22T03:29:35;16.67;;;14.98;;
20462;SDS011;10390;53.566;9.980;2022-10-22T03:32:02;14.23;;;12.73;;
20462;SDS011;10390;53.566;9.980;2022-10-22T03:34:28;14.20;;;12.80;;
20462;SDS011;10390;53.566;9.980;2022-10-22T03:36:53;14.50;;;13.10;;
20462;SDS011;10390;53.566;9.980;2022-10-22T03:39:23;13.82;;;12.43;;
20462;SDS011;10390;53.566;9.980;2022-10-22T03:41:49;13.55;;;12.25;;
20462;SDS011;10390;53.566;9.980;2022-10-22T03:44:15;12.13;;;11.02;;
20462;SDS011;10390;53.566;9.980;2022-10-22T03:46:41;11.73;;;10.73;;
20462;SDS011;10390;53.566;9.980;2022-10-22T03:49:07;12.40;;;11.20;;
20462;SDS011;10390;53.566;9.980;2022-10-22T03:51:33;12.00;;;10.90;;
20462;SDS011;10390;53.566;9.980;2022-10-22T03:53:59;10.88;;;9.88;;
20462;SDS011;10390;53.566;9.980;2022-10-22T03:56:26;11.30;;;10.20;;
20462;SDS011;10390;53.566;9.980;2022-10-22T03:58:54;10.93;;;9.93;;
20462;SDS011;10390;53.566;9.980;2022-10-22T04:01:21;10.65;;;9.85;;
20462;SDS011;10390;53.566;9.980;2022-10-22T04:03:47;9.80;;;9.00;;
20462;SDS011;10390;53.566;9.980;2022-10-22T04:06:12;9.93;;;9.05;;
20462;SDS011;10390;53.566;9.980;2022-10-22T04:08:38;10.20;;;9.40;;
20462;SDS011;10390;53.566;9.980;2022-10-22T04:11:05;10.13;;;9.23;;
20462;SDS011;10390;53.566;9.980;2022-10-22T04:13:31;11.18;;;10.07;;
20462;SDS011;10390;53.566;9.980;2022-10-22T04:16:07;11.50;;;10.50;;
20462;SDS011;10390;53.566;9.980;2022-10-22T04:18:38;11.50;;;10.40;;
20462;SDS011;10390;53.566;9.980;2022-10-22T04:21:04;11.32;;;10.35;;
20462;SDS011;10390;53.566;9.980;2022-10-22T04:23:31;11.95;;;10.93;;
20462;SDS011;10390;53.566;9.980;2022-10-22T04:26:00;11.00;;;10.00;;
20462;SDS011;10390;53.566;9.980;2022-10-22T04:28:29;11.25;;;10.25;;
20462;SDS011;10390;53.566;9.980;2022-10-22T04:30:55;10.77;;;9.88;;
20462;SDS011;10390;53.566;9.980;2022-10-22T04:33:20;11.20;;;10.20;;
20462;SDS011;10390;53.566;9.980;2022-10-22T04:35:46;10.90;;;9.90;;
20462;SDS011;10390;53.566;9.980;2022-10-22T04:38:12;12.00;;;10.88;;
20462;SDS011;10390;53.566;9.980;2022-10-22T04:40:38;11.93;;;10.82;;
20462;SDS011;10390;53.566;9.980;2022-10-22T04:43:03;11.48;;;10.48;;
20462;SDS011;10390;53.566;9.980;2022-10-22T04:45:29;10.80;;;9.90;;
20462;SDS011;10390;53.566;9.980;2022-10-22T04:47:56;11.68;;;10.57;;
20462;SDS011;10390;53.566;9.980;2022-10-22T04:50:22;12.45;;;11.25;;
20462;SDS011;10390;53.566;9.980;2022-10-22T04:52:47;12.45;;;11.35;;
20462;SDS011;10390;53.566;9.980;2022-10-22T04:55:13;11.65;;;10.50;;
20462;SDS011;10390;53.566;9.980;2022-10-22T04:57:38;13.02;;;11.82;;
20462;SDS011;10390;53.566;9.980;2022-10-22T05:00:04;13.93;;;12.73;;
20462;SDS011;10390;53.566;9.980;2022-10-22T05:02:30;14.23;;;12.93;;
20462;SDS011;10390;53.566;9.980;2022-10-22T05:04:56;14.68;;;13.27;;
20462;SDS011;10390;53.566;9.980;2022-10-22T05:07:21;15.73;;;14.15;;
20462;SDS011;10390;53.566;9.980;2022-10-22T05:09:48;16.85;;;15.25;;
20462;SDS011;10390;53.566;9.980;2022-10-22T05:12:13;15.88;;;14.38;;
20462;SDS011;10390;53.566;9.980;2022-10-22T05:14:39;15.77;;;14.27;;
20462;SDS011;10390;53.566;9.980;2022-10-22T05:17:05;20.88;;;18.77;;
20462;SDS011;10390;53.566;9.980;2022-10-22T05:19:31;18.60;;;16.65;;
20462;SDS011;10390;53.566;9.980;2022-10-22T05:21:58;18.85;;;16.85;;
20462;SDS011;10390;53.566;9.980;2022-10-22T05:24:25;18.23;;;16.45;;
20462;SDS011;10390;53.566;9.980;2022-10-22T05:26:52;17.63;;;15.80;;
20462;SDS011;10390;53.566;9.980;2022-10-22T05:29:19;20.23;;;18.23;;
20462;SDS011;10390;53.566;9.980;2022-10-22T05:31:45;23.23;;;20.70;;
20462;SDS011;10390;53.566;9.980;2022-10-22T05:34:11;22.30;;;19.92;;
20462;SDS011;10390;53.566;9.980;2022-10-22T05:36:36;22.38;;;19.98;;
20462;SDS011;10390;53.566;9.980;2022-10-22T05:39:02;22.17;;;19.85;;
20462;SDS011;10390;53.566;9.980;2022-10-22T05:41:29;22.10;;;19.70;;
20462;SDS011;10390;53.566;9.980;2022-10-22T05:43:55;23.67;;;20.83;;
20462;SDS011;10390;53.566;9.980;2022-10-22T05:46:22;21.05;;;18.85;;
20462;SDS011;10390;53.566;9.980;2022-10-22T05:48:53;18.08;;;16.25;;
20462;SDS011;10390;53.566;9.980;2022-10-22T05:51:20;15.77;;;14.27;;
20462;SDS011;10390;53.566;9.980;2022-10-22T05:53:49;14.50;;;13.20;;
20462;SDS011;10390;53.566;9.980;2022-10-22T05:56:19;14.60;;;13.15;;
20462;SDS011;10390;53.566;9.980;2022-10-22T05:58:45;13.73;;;12.40;;
20462;SDS011;10390;53.566;9.980;2022-10-22T06:01:13;13.93;;;12.63;;
20462;SDS011;10390;53.566;9.980;2022-10-22T06:03:41;12.23;;;11.02;;
20462;SDS011;10390;53.566;9.980;2022-10-22T06:08:50;13.55;;;12.25;;
20462;SDS011;10390;53.566;9.980;2022-10-22T06:11:19;14.40;;;13.00;;
20462;SDS011;10390;53.566;9.980;2022-10-22T06:13:47;14.07;;;12.75;;
20462;SDS011;10390;53.566;9.980;2022-10-22T06:16:13;15.48;;;14.05;;
20462;SDS011;10390;53.566;9.980;2022-10-22T06:18:39;15.73;;;14.23;;
20462;SDS011;10390;53.566;9.980;2022-10-22T06:21:14;16.48;;;14.88;;
20462;SDS011;10390;53.566;9.980;2022-10-22T06:23:40;15.68;;;14.07;;
20462;SDS011;10390;53.566;9.980;2022-10-22T06:26:07;16.15;;;14.55;;
20462;SDS011;10390;53.566;9.980;2022-10-22T06:28:33;16.35;;;14.75;;
20462;SDS011;10390;53.566;9.980;2022-10-22T06:31:00;17.67;;;15.90;;
20462;SDS011;10390;53.566;9.980;2022-10-22T06:33:27;17.48;;;15.77;;
20462;SDS011;10390;53.566;9.980;2022-10-22T06:35:53;19.38;;;17.30;;
20462;SDS011;10390;53.566;9.980;2022-10-22T06:38:19;17.85;;;16.00;;
20462;SDS011;10390;53.566;9.980;2022-10-22T06:40:45;16.27;;;14.73;;
20462;SDS011;10390;53.566;9.980;2022-10-22T06:43:11;16.52;;;14.82;;
20462;SDS011;10390;53.566;9.980;2022-10-22T06:45:38;18.00;;;16.10;;
20462;SDS011;10390;53.566;9.980;2022-10-22T06:48:04;16.95;;;15.15;;
20462;SDS011;10390;53.566;9.980;2022-10-22T06:50:30;17.90;;;16.10;;
20462;SDS011;10390;53.566;9.980;2022-10-22T06:52:57;16.85;;;15.15;;
20462;SDS011;10390;53.566;9.980;2022-10-22T06:55:23;17.58;;;15.68;;
20462;SDS011;10390;53.566;9.980;2022-10-22T06:57:48;18.23;;;16.33;;
20462;SDS011;10390;53.566;9.980;2022-10-22T07:00:14;19.35;;;17.35;;
20462;SDS011;10390;53.566;9.980;2022-10-22T07:02:40;20.90;;;18.65;;
20462;SDS011;10390;53.566;9.980;2022-10-22T07:05:05;22.05;;;19.65;;
20462;SDS011;10390;53.566;9.980;2022-10-22T07:07:31;23.98;;;21.42;;
20462;SDS011;10390;53.566;9.980;2022-10-22T07:09:57;22.95;;;20.52;;
20462;SDS011;10390;53.566;9.980;2022-10-22T07:12:23;23.45;;;20.98;;
20462;SDS011;10390;53.566;9.980;2022-10-22T07:14:48;21.30;;;19.10;;
20462;SDS011;10390;53.566;9.980;2022-10-22T07:17:14;17.80;;;15.88;;
20462;SDS011;10390;53.566;9.980;2022-10-22T07:19:39;17.77;;;15.95;;
20462;SDS011;10390;53.566;9.980;2022-10-22T07:22:05;17.00;;;15.27;;
20462;SDS011;10390;53.566;9.980;2022-10-22T07:24:30;16.33;;;14.70;;
20462;SDS011;10390;53.566;9.980;2022-10-22T07:26:56;16.80;;;15.10;;
20462;SDS011;10390;53.566;9.980;2022-10-22T07:29:22;18.23;;;16.35;;
20462;SDS011;10390;53.566;9.980;2022-10-22T07:31:48;18.40;;;16.58;;
20462;SDS011;10390;53.566;9.980;2022-10-22T07:34:13;16.73;;;15.02;;
20462;SDS011;10390;53.566;9.980;2022-10-22T07:36:39;16.02;;;14.43;;
20462;SDS011;10390;53.566;9.980;2022-10-22T07:39:04;14.07;;;12.60;;
20462;SDS011;10390;53.566;9.980;2022-10-22T07:41:30;13.25;;;11.95;;
20462;SDS011;10390;53.566;9.980;2022-10-22T07:43:56;14.00;;;12.50;;
20462;SDS011;10390;53.566;9.980;2022-10-22T07:46:23;15.85;;;14.25;;
20462;SDS011;10390;53.566;9.980;2022-10-22T07:48:49;18.63;;;16.10;;
20462;SDS011;10390;53.566;9.980;2022-10-22T07:51:15;17.48;;;15.63;;
20462;SDS011;10390;53.566;9.980;2022-10-22T07:53:41;19.70;;;17.05;;
20462;SDS011;10390;53.566;9.980;2022-10-22T07:56:07;20.45;;;18.13;;
20462;SDS011;10390;53.566;9.980;2022-10-22T07:58:32;21.05;;;18.83;;
20462;SDS011;10390;53.566;9.980;2022-10-22T08:00:59;19.75;;;17.15;;
20462;SDS011;10390;53.566;9.980;2022-10-22T08:03:25;20.25;;;18.00;;
20462;SDS011;10390;53.566;9.980;2022-10-22T08:05:52;17.48;;;15.70;;
20462;SDS011;10390;53.566;9.980;2022-10-22T08:08:18;16.35;;;14.60;;
20462;SDS011;10390;53.566;9.980;2022-10-22T08:10:45;16.08;;;13.82;;
20462;SDS011;10390;53.566;9.980;2022-10-22T08:13:11;14.60;;;13.18;;
20462;SDS011;10390;53.566;9.980;2022-10-22T08:15:37;13.52;;;12.23;;
20462;SDS011;10390;53.566;9.980;2022-10-22T08:18:03;12.68;;;11.38;;
20462;SDS011;10390;53.566;9.980;2022-10-22T08:20:29;10.77;;;9.77;;
20462;SDS011;10390;53.566;9.980;2022-10-22T08:22:55;11.02;;;9.25;;
20462;SDS011;10390;53.566;9.980;2022-10-22T08:25:22;10.57;;;9.57;;
20462;SDS011;10390;53.566;9.980;2022-10-22T08:27:48;10.07;;;9.07;;
20462;SDS011;10390;53.566;9.980;2022-10-22T08:30:13;10.45;;;9.45;;
20462;SDS011;10390;53.566;9.980;2022-10-22T08:32:40;9.45;;;8.65;;
20462;SDS011;10390;53.566;9.980;2022-10-22T08:35:06;10.05;;;9.15;;
20462;SDS011;10390;53.566;9.980;2022-10-22T08:37:31;9.68;;;8.68;;
20462;SDS011;10390;53.566;9.980;2022-10-22T08:39:57;9.85;;;8.95;;
20462;SDS011;10390;53.566;9.980;2022-10-22T08:45:21;9.70;;;8.80;;
20462;SDS011;10390;53.566;9.980;2022-10-22T08:50:32;9.20;;;8.27;;
20462;SDS011;10390;53.566;9.980;2022-10-22T08:53:05;10.45;;;9.45;;
20462;SDS011;10390;53.566;9.980;2022-10-22T08:55:36;10.27;;;9.18;;
20462;SDS011;10390;53.566;9.980;2022-10-22T09:00:36;9.93;;;8.93;;
20462;SDS011;10390;53.566;9.980;2022-10-22T09:06:32;9.25;;;8.45;;
20462;SDS011;10390;53.566;9.980;2022-10-22T09:09:00;9.43;;;8.63;;
20462;SDS011;10390;53.566;9.980;2022-10-22T09:11:35;9.45;;;8.65;;
20462;SDS011;10390;53.566;9.980;2022-10-22T09:14:03;9.25;;;8.45;;
20462;SDS011;10390;53.566;9.980;2022-10-22T09:19:06;9.45;;;8.65;;
20462;SDS011;10390;53.566;9.980;2022-10-22T09:21:48;9.25;;;8.45;;
20462;SDS011;10390;53.566;9.980;2022-10-22T09:26:55;9.20;;;8.38;;
20462;SDS011;10390;53.566;9.980;2022-10-22T09:29:23;9.02;;;8.23;;
20462;SDS011;10390;53.566;9.980;2022-10-22T09:31:55;9.52;;;8.73;;
20462;SDS011;10390;53.566;9.980;2022-10-22T09:34:20;9.00;;;8.20;;
20462;SDS011;10390;53.566;9.980;2022-10-22T09:36:46;8.90;;;8.10;;
20462;SDS011;10390;53.566;9.980;2022-10-22T09:39:22;10.25;;;9.35;;
20462;SDS011;10390;53.566;9.980;2022-10-22T09:41:49;9.13;;;8.32;;
20462;SDS011;10390;53.566;9.980;2022-10-22T09:44:16;9.65;;;8.85;;
20462;SDS011;10390;53.566;9.980;2022-10-22T09:46:42;8.90;;;8.10;;
20462;SDS011;10390;53.566;9.980;2022-10-22T09:49:11;9.00;;;8.20;;
20462;SDS011;10390;53.566;9.980;2022-10-22T09:51:45;9.40;;;8.50;;
20462;SDS011;10390;53.566;9.980;2022-10-22T09:54:16;9.75;;;8.90;;
20462;SDS011;10390;53.566;9.980;2022-10-22T09:57:27;9.13;;;8.32;;
20462;SDS011;10390;53.566;9.980;2022-10-22T09:59:38;9.63;;;8.80;;
20462;SDS011;10390;53.566;9.980;2022-10-22T10:02:14;9.18;;;8.48;;
20462;SDS011;10390;53.566;9.980;2022-10-22T10:04:48;9.32;;;8.52;;
20462;SDS011;10390;53.566;9.980;2022-10-22T10:07:19;9.57;;;8.77;;
20462;SDS011;10390;53.566;9.980;2022-10-22T10:09:47;9.68;;;8.88;;
20462;SDS011;10390;53.566;9.980;2022-10-22T10:17:39;9.73;;;8.93;;
20462;SDS011;10390;53.566;9.980;2022-10-22T10:20:15;9.85;;;8.95;;
20462;SDS011;10390;53.566;9.980;2022-10-22T10:25:33;8.80;;;8.00;;
20462;SDS011;10390;53.566;9.980;2022-10-22T10:37:00;9.65;;;8.88;;
20462;SDS011;10390;53.566;9.980;2022-10-22T10:42:42;9.38;;;8.55;;
20462;SDS011;10390;53.566;9.980;2022-10-22T10:48:01;8.65;;;7.90;;
20462;SDS011;10390;53.566;9.980;2022-10-22T11:07:35;8.80;;;8.00;;
20462;SDS011;10390;53.566;9.980;2022-10-22T11:10:11;10.02;;;9.20;;
20462;SDS011;10390;53.566;9.980;2022-10-22T11:12:43;9.55;;;8.75;;
20462;SDS011;10390;53.566;9.980;2022-10-22T11:15:31;9.10;;;8.27;;
20462;SDS011;10390;53.566;9.980;2022-10-22T11:18:01;9.00;;;8.20;;
20462;SDS011;10390;53.566;9.980;2022-10-22T11:23:21;9.80;;;8.95;;
20462;SDS011;10390;53.566;9.980;2022-10-22T11:29:04;9.63;;;8.63;;
20462;SDS011;10390;53.566;9.980;2022-10-22T11:31:35;9.80;;;9.00;;
20462;SDS011;10390;53.566;9.980;2022-10-22T11:34:04;9.77;;;8.82;;
20462;SDS011;10390;53.566;9.980;2022-10-22T11:36:38;10.23;;;9.32;;
20462;SDS011;10390;53.566;9.980;2022-10-22T11:39:05;10.25;;;9.38;;
20462;SDS011;10390;53.566;9.980;2022-10-22T11:41:31;9.48;;;8.57;;
20462;SDS011;10390;53.566;9.980;2022-10-22T11:46:44;9.35;;;8.45;;
20462;SDS011;10390;53.566;9.980;2022-10-22T11:49:18;9.50;;;8.60;;
20462;SDS011;10390;53.566;9.980;2022-10-22T11:51:48;9.40;;;8.50;;
20462;SDS011;10390;53.566;9.980;2022-10-22T11:59:58;9.65;;;8.75;;
20462;SDS011;10390;53.566;9.980;2022-10-22T12:07:58;9.55;;;8.75;;
20462;SDS011;10390;53.566;9.980;2022-10-22T12:13:22;9.05;;;7.90;;
20462;SDS011;10390;53.566;9.980;2022-10-22T12:15:50;8.40;;;7.68;;
20462;SDS011;10390;53.566;9.980;2022-10-22T12:18:21;8.65;;;7.82;;
20462;SDS011;10390;53.566;9.980;2022-10-22T12:20:50;8.57;;;7.70;;
20462;SDS011;10390;53.566;9.980;2022-10-22T12:23:18;7.90;;;7.20;;
20462;SDS011;10390;53.566;9.980;2022-10-22T12:25:48;7.95;;;7.25;;
20462;SDS011;10390;53.566;9.980;2022-10-22T12:28:13;8.38;;;7.63;;
20462;SDS011;10390;53.566;9.980;2022-10-22T12:30:40;8.25;;;7.45;;
20462;SDS011;10390;53.566;9.980;2022-10-22T12:33:07;8.88;;;7.85;;
20462;SDS011;10390;53.566;9.980;2022-10-22T12:35:44;9.30;;;8.40;;
20462;SDS011;10390;53.566;9.980;2022-10-22T12:38:18;9.82;;;8.93;;
20462;SDS011;10390;53.566;9.980;2022-10-22T12:40:46;8.93;;;8.13;;
20462;SDS011;10390;53.566;9.980;2022-10-22T12:43:14;8.80;;;7.90;;
20462;SDS011;10390;53.566;9.980;2022-10-22T12:45:48;8.75;;;7.95;;
20462;SDS011;10390;53.566;9.980;2022-10-22T12:48:27;8.57;;;7.88;;
20462;SDS011;10390;53.566;9.980;2022-10-22T12:51:00;8.80;;;8.00;;
20462;SDS011;10390;53.566;9.980;2022-10-22T12:53:31;9.20;;;8.40;;
20462;SDS011;10390;53.566;9.980;2022-10-22T12:56:01;9.07;;;8.27;;
20462;SDS011;10390;53.566;9.980;2022-10-22T12:58:35;8.20;;;7.50;;
20462;SDS011;10390;53.566;9.980;2022-10-22T13:01:11;8.82;;;8.02;;
20462;SDS011;10390;53.566;9.980;2022-10-22T13:03:40;8.60;;;7.85;;
20462;SDS011;10390;53.566;9.980;2022-10-22T13:08:43;8.85;;;8.05;;
20462;SDS011;10390;53.566;9.980;2022-10-22T13:11:30;8.10;;;7.45;;
20462;SDS011;10390;53.566;9.980;2022-10-22T13:14:04;8.60;;;7.80;;
20462;SDS011;10390;53.566;9.980;2022-10-22T13:19:35;8.48;;;7.78;;
20462;SDS011;10390;53.566;9.980;2022-10-22T13:22:03;8.32;;;7.72;;
20462;SDS011;10390;53.566;9.980;2022-10-22T13:24:29;8.20;;;7.50;;
20462;SDS011;10390;53.566;9.980;2022-10-22T13:26:55;8.65;;;7.85;;
20462;SDS011;10390;53.566;9.980;2022-10-22T13:29:21;8.30;;;7.60;;
20462;SDS011;10390;53.566;9.980;2022-10-22T13:31:49;7.90;;;7.18;;
20462;SDS011;10390;53.566;9.980;2022-10-22T13:34:16;8.63;;;7.70;;
20462;SDS011;10390;53.566;9.980;2022-10-22T13:36:44;8.85;;;7.65;;
20462;SDS011;10390;53.566;9.980;2022-10-22T13:39:17;7.80;;;7.20;;
20462;SDS011;10390;53.566;9.980;2022-10-22T13:41:44;7.93;;;7.22;;
20462;SDS011;10390;53.566;9.980;2022-10-22T13:44:10;7.70;;;7.05;;
20462;SDS011;10390;53.566;9.980;2022-10-22T13:46:35;8.32;;;7.63;;
20462;SDS011;10390;53.566;9.980;2022-10-22T13:49:06;8.13;;;7.45;;
20462;SDS011;10390;53.566;9.980;2022-10-22T13:51:38;8.20;;;7.50;;
20462;SDS011;10390;53.566;9.980;2022-10-22T13:54:05;8.50;;;7.75;;
20462;SDS011;10390;53.566;9.980;2022-10-22T13:56:37;7.90;;;7.20;;
20462;SDS011;10390;53.566;9.980;2022-10-22T13:59:03;8.45;;;7.60;;
20462;SDS011;10390;53.566;9.980;2022-10-22T14:01:28;8.55;;;7.65;;
20462;SDS011;10390;53.566;9.980;2022-10-22T14:03:55;8.40;;;7.70;;
20462;SDS011;10390;53.566;9.980;2022-10-22T14:06:24;8.55;;;7.75;;
20462;SDS011;10390;53.566;9.980;2022-10-22T14:08:58;8.02;;;7.30;;
20462;SDS011;10390;53.566;9.980;2022-10-22T14:11:26;7.65;;;6.95;;
20462;SDS011;10390;53.566;9.980;2022-10-22T14:13:52;7.55;;;6.85;;
20462;SDS011;10390;53.566;9.980;2022-10-22T14:16:19;8.18;;;7.47;;
20462;SDS011;10390;53.566;9.980;2022-10-22T14:18:47;7.70;;;7.10;;
20462;SDS011;10390;53.566;9.980;2022-10-22T14:21:14;8.27;;;7.47;;
20462;SDS011;10390;53.566;9.980;2022-10-22T14:23:41;7.47;;;6.88;;
20462;SDS011;10390;53.566;9.980;2022-10-22T14:26:30;8.02;;;7.35;;
20462;SDS011;10390;53.566;9.980;2022-10-22T14:28:57;8.20;;;7.40;;
20462;SDS011;10390;53.566;9.980;2022-10-22T14:31:23;8.30;;;7.50;;
20462;SDS011;10390;53.566;9.980;2022-10-22T14:33:49;8.40;;;7.70;;
20462;SDS011;10390;53.566;9.980;2022-10-22T14:36:16;8.77;;;8.07;;
20462;SDS011;10390;53.566;9.980;2022-10-22T14:38:44;7.85;;;7.15;;
20462;SDS011;10390;53.566;9.980;2022-10-22T14:41:18;8.00;;;7.28;;
20462;SDS011;10390;53.566;9.980;2022-10-22T14:43:49;7.78;;;7.07;;
20462;SDS011;10390;53.566;9.980;2022-10-22T14:46:15;9.20;;;8.50;;
20462;SDS011;10390;53.566;9.980;2022-10-22T14:48:42;9.20;;;8.40;;
20462;SDS011;10390;53.566;9.980;2022-10-22T14:51:15;9.60;;;8.77;;
20462;SDS011;10390;53.566;9.980;2022-10-22T14:53:42;8.05;;;7.43;;
20462;SDS011;10390;53.566;9.980;2022-10-22T14:56:12;8.25;;;7.55;;
20462;SDS011;10390;53.566;9.980;2022-10-22T14:58:39;8.77;;;8.07;;
20462;SDS011;10390;53.566;9.980;2022-10-22T15:01:05;8.10;;;7.40;;
20462;SDS011;10390;53.566;9.980;2022-10-22T15:03:31;7.93;;;7.22;;
20462;SDS011;10390;53.566;9.980;2022-10-22T15:05:57;7.60;;;7.00;;
20462;SDS011;10390;53.566;9.980;2022-10-22T15:08:24;8.07;;;7.47;;
20462;SDS011;10390;53.566;9.980;2022-10-22T15:11:10;7.45;;;6.80;;
20462;SDS011;10390;53.566;9.980;2022-10-22T15:13:36;8.02;;;7.30;;
20462;SDS011;10390;53.566;9.980;2022-10-22T15:16:05;8.18;;;7.47;;
20462;SDS011;10390;53.566;9.980;2022-10-22T15:18:31;7.80;;;7.10;;
20462;SDS011;10390;53.566;9.980;2022-10-22T15:20:57;8.13;;;7.32;;
20462;SDS011;10390;53.566;9.980;2022-10-22T15:23:24;7.57;;;6.90;;
20462;SDS011;10390;53.566;9.980;2022-10-22T15:25:50;8.88;;;8.10;;
20462;SDS011;10390;53.566;9.980;2022-10-22T15:28:16;8.18;;;7.47;;
20462;SDS011;10390;53.566;9.980;2022-10-22T15:30:41;8.95;;;8.05;;
20462;SDS011;10390;53.566;9.980;2022-10-22T15:33:07;8.45;;;7.65;;
20462;SDS011;10390;53.566;9.980;2022-10-22T15:35:33;8.55;;;7.80;;
20462;SDS011;10390;53.566;9.980;2022-10-22T15:37:58;9.15;;;8.20;;
20462;SDS011;10390;53.566;9.980;2022-10-22T15:40:24;9.00;;;8.10;;
20462;SDS011;10390;53.566;9.980;2022-10-22T15:42:49;10.27;;;8.25;;
20462;SDS011;10390;53.566;9.980;2022-10-22T15:45:15;11.27;;;8.05;;
20462;SDS011;10390;53.566;9.980;2022-10-22T15:47:44;10.80;;;7.95;;
20462;SDS011;10390;53.566;9.980;2022-10-22T15:50:11;11.05;;;8.02;;
20462;SDS011;10390;53.566;9.980;2022-10-22T15:52:37;9.48;;;7.88;;
20462;SDS011;10390;53.566;9.980;2022-10-22T15:55:02;10.18;;;8.13;;
20462;SDS011;10390;53.566;9.980;2022-10-22T15:57:30;10.40;;;8.80;;
20462;SDS011;10390;53.566;9.980;2022-10-22T15:59:56;13.95;;;9.90;;
20462;SDS011;10390;53.566;9.980;2022-10-22T16:02:22;10.15;;;8.40;;
20462;SDS011;10390;53.566;9.980;2022-10-22T16:04:48;9.77;;;8.77;;
20462;SDS011;10390;53.566;9.980;2022-10-22T16:07:13;10.68;;;8.15;;
20462;SDS011;10390;53.566;9.980;2022-10-22T16:09:39;10.10;;;8.25;;
20462;SDS011;10390;53.566;9.980;2022-10-22T16:12:05;9.05;;;8.07;;
20462;SDS011;10390;53.566;9.980;2022-10-22T16:14:30;10.05;;;8.70;;
20462;SDS011;10390;53.566;9.980;2022-10-22T16:16:56;10.13;;;9.13;;
20462;SDS011;10390;53.566;9.980;2022-10-22T16:19:26;10.88;;;8.85;;
20462;SDS011;10390;53.566;9.980;2022-10-22T16:21:55;10.20;;;9.20;;
20462;SDS011;10390;53.566;9.980;2022-10-22T16:24:28;11.50;;;9.43;;
20462;SDS011;10390;53.566;9.980;2022-10-22T16:27:05;12.55;;;10.48;;
20462;SDS011;10390;53.566;9.980;2022-10-22T16:29:34;13.20;;;10.20;;
20462;SDS011;10390;53.566;9.980;2022-10-22T16:32:04;15.30;;;10.10;;